createdAt,value
2024-02-26T00:01:00.223Z,26.20
2024-02-26T00:06:33.690Z,27.10
2024-02-26T00:11:40.085Z,27.10
2024-02-26T00:16:43.692Z,26.40
2024-02-26T00:21:47.231Z,26.30
2024-02-26T00:26:54.550Z,27.20
2024-02-26T00:31:58.178Z,40.40
2024-02-26T00:37:01.552Z,42.40
2024-02-26T00:42:27.833Z,43.10
2024-02-26T00:47:31.615Z,43.20
2024-02-26T00:52:41.391Z,45.60
2024-02-26T00:57:47.480Z,39.20
2024-02-26T01:03:00.808Z,37.90
2024-02-26T01:08:10.338Z,38.20
2024-02-26T01:13:26.997Z,41.10
2024-02-26T01:18:33.547Z,40.90
2024-02-26T01:23:41.843Z,37.90
2024-02-26T01:28:45.335Z,39.20
2024-02-26T01:33:49.025Z,39.10
2024-02-26T01:38:57.287Z,36.20
2024-02-26T01:44:06.354Z,41.00
2024-02-26T01:49:17.489Z,38.30
2024-02-26T01:55:11.637Z,41.50
2024-02-26T02:00:33.637Z,41.80
2024-02-26T02:06:26.034Z,39.30
2024-02-26T02:11:32.006Z,40.90
2024-02-26T02:16:56.443Z,41.00
2024-02-26T02:22:02.589Z,39.90
2024-02-26T02:27:30.299Z,38.10
2024-02-26T02:32:41.081Z,42.90
2024-02-26T02:37:44.590Z,39.20
2024-02-26T02:42:50.752Z,41.00
2024-02-26T02:47:54.808Z,38.80
2024-02-26T02:53:03.230Z,42.80
2024-02-26T02:58:09.778Z,43.20
2024-02-26T03:03:47.084Z,41.80
2024-02-26T03:08:55.646Z,40.00
2024-02-26T03:14:10.040Z,40.90
2024-02-26T03:19:24.797Z,43.80
2024-02-26T03:24:29.338Z,38.70
2024-02-26T03:29:39.839Z,41.00
2024-02-26T03:34:45.750Z,37.70
2024-02-26T03:39:49.253Z,40.90
2024-02-26T03:44:52.768Z,38.70
2024-02-26T03:50:02.005Z,35.10
2024-02-26T03:55:09.118Z,43.20
2024-02-26T04:00:13.518Z,42.80
2024-02-26T04:05:17.289Z,36.80
2024-02-26T04:10:23.192Z,38.20
2024-02-26T04:15:37.775Z,40.00
2024-02-26T04:20:44.036Z,39.90
2024-02-26T04:26:05.198Z,39.40
2024-02-26T04:31:11.151Z,41.40
2024-02-26T04:36:19.056Z,37.40
2024-02-26T04:41:22.884Z,36.30
2024-02-26T04:46:29.623Z,32.80
2024-02-26T04:51:33.351Z,37.50
2024-02-26T04:56:37.224Z,33.30
2024-02-26T05:01:56.620Z,33.40
2024-02-26T05:07:03.342Z,34.40
2024-02-26T05:12:50.284Z,37.90
2024-02-26T05:17:58.691Z,38.50
2024-02-26T05:23:06.982Z,38.60
2024-02-26T05:28:24.168Z,38.60
2024-02-26T05:33:37.830Z,42.60
2024-02-26T05:38:47.808Z,40.50
2024-02-26T05:43:51.941Z,42.70
2024-02-26T05:48:55.600Z,39.90
2024-02-26T05:54:18.665Z,43.80
2024-02-26T05:59:25.260Z,42.00
2024-02-26T06:04:31.153Z,35.20
2024-02-26T06:09:54.423Z,42.20
2024-02-26T06:15:11.336Z,39.80
2024-02-26T06:20:18.197Z,41.20
2024-02-26T06:25:25.174Z,47.40
2024-02-26T06:30:39.135Z,49.20
2024-02-26T06:36:34.454Z,46.30
2024-02-26T06:41:42.777Z,44.90
2024-02-26T06:47:05.058Z,43.60
2024-02-26T06:52:11.065Z,42.80
2024-02-26T06:57:15.303Z,40.50
2024-02-26T07:02:19.426Z,36.70
2024-02-26T07:07:27.164Z,33.40
2024-02-26T07:12:31.733Z,29.80
2024-02-26T07:17:35.459Z,32.30
2024-02-26T07:22:41.452Z,28.00
2024-02-26T07:27:44.880Z,29.20
2024-02-26T07:32:51.358Z,28.30
2024-02-26T07:37:55.150Z,31.00
2024-02-26T07:42:58.602Z,28.60
2024-02-26T07:48:02.077Z,31.40
2024-02-26T07:53:05.822Z,27.60
2024-02-26T07:58:09.959Z,30.10
2024-02-26T08:03:14.785Z,32.70
2024-02-26T08:08:18.797Z,31.90
2024-02-26T08:13:22.448Z,33.90
2024-02-26T08:18:25.965Z,29.80
2024-02-26T08:23:30.261Z,29.90
2024-02-26T08:28:33.765Z,31.80
2024-02-26T08:33:39.782Z,28.80
2024-02-26T08:38:43.360Z,28.50
2024-02-26T08:43:47.052Z,24.10
2024-02-26T08:48:50.807Z,22.90
2024-02-26T08:53:55.315Z,25.20
2024-02-26T08:59:05.261Z,23.50
2024-02-26T09:04:09.238Z,25.80
2024-02-26T09:09:13.034Z,22.50
2024-02-26T09:14:16.552Z,21.60
2024-02-26T09:19:19.997Z,21.20
2024-02-26T09:24:23.688Z,19.50
2024-02-26T09:29:30.366Z,18.30
2024-02-26T09:34:35.127Z,19.60
2024-02-26T09:39:38.909Z,21.40
2024-02-26T09:44:45.127Z,19.80
2024-02-26T09:49:53.500Z,19.50
2024-02-26T09:54:56.932Z,21.20
2024-02-26T10:00:06.794Z,18.50
2024-02-26T10:05:15.662Z,18.80
2024-02-26T10:10:19.549Z,19.10
2024-02-26T10:15:23.026Z,19.40
2024-02-26T10:20:27.680Z,19.10
2024-02-26T10:25:55.578Z,17.00
2024-02-26T10:31:01.841Z,15.40
2024-02-26T10:36:09.649Z,16.40
2024-02-26T10:41:16.803Z,15.70
2024-02-26T10:46:20.890Z,15.70
2024-02-26T10:51:29.561Z,19.40
2024-02-26T10:56:41.244Z,18.40
2024-02-26T11:01:48.080Z,17.20
2024-02-26T11:06:52.352Z,17.60
2024-02-26T11:11:56.632Z,18.00
2024-02-26T11:17:01.508Z,18.70
2024-02-26T11:22:15.812Z,14.40
2024-02-26T11:27:46.415Z,15.10
2024-02-26T11:32:50.376Z,14.40
2024-02-26T11:37:58.028Z,13.40
2024-02-26T11:43:01.423Z,13.00
2024-02-26T11:48:12.956Z,11.30
2024-02-26T11:53:32.212Z,12.00
2024-02-26T11:58:36.024Z,11.40
2024-02-26T12:03:40.423Z,10.80
2024-02-26T12:08:45.642Z,9.70
2024-02-26T12:13:52.100Z,10.10
2024-02-26T12:18:56.245Z,10.30
2024-02-26T12:24:12.685Z,8.80
2024-02-26T12:29:16.164Z,8.70
2024-02-26T12:34:20.983Z,7.80
2024-02-26T12:39:25.060Z,7.10
2024-02-26T12:44:28.482Z,9.00
2024-02-26T12:49:32.733Z,8.40
2024-02-26T12:54:40.220Z,7.60
2024-02-26T12:59:43.720Z,8.00
2024-02-26T13:04:47.428Z,6.20
2024-02-26T13:09:51.501Z,6.60
2024-02-26T13:15:03.066Z,7.20
2024-02-26T13:20:07.928Z,7.70
2024-02-26T13:25:11.711Z,6.00
2024-02-26T13:30:15.370Z,6.60
2024-02-26T13:35:19.731Z,6.10
2024-02-26T13:40:23.658Z,7.70
2024-02-26T13:45:30.008Z,4.90
2024-02-26T13:50:44.898Z,6.30
2024-02-26T13:55:48.575Z,5.10
2024-02-26T14:00:52.021Z,5.60
2024-02-26T14:05:55.988Z,8.20
2024-02-26T14:11:01.311Z,4.80
2024-02-26T14:16:04.932Z,3.80
2024-02-26T14:21:08.454Z,6.00
2024-02-26T14:26:12.701Z,4.30
2024-02-26T14:31:19.116Z,5.60
2024-02-26T14:36:23.084Z,4.30
2024-02-26T14:41:26.531Z,3.90
2024-02-26T14:46:30.237Z,5.50
2024-02-26T14:51:33.882Z,6.40
2024-02-26T14:56:38.464Z,4.90
2024-02-26T15:01:43.719Z,4.40
2024-02-26T15:06:48.415Z,6.90
2024-02-26T15:11:52.215Z,6.20
2024-02-26T15:16:55.846Z,8.10
2024-02-26T15:21:59.243Z,6.10
2024-02-26T15:27:02.588Z,7.80
2024-02-26T15:32:08.443Z,6.70
2024-02-26T15:37:14.737Z,7.80
2024-02-26T15:42:18.797Z,6.70
2024-02-26T15:47:22.148Z,8.10
2024-02-26T15:52:25.877Z,7.70
2024-02-26T15:57:29.490Z,9.60
2024-02-26T16:02:33.276Z,8.20
2024-02-26T16:08:00.477Z,8.00
2024-02-26T16:13:05.757Z,7.70
2024-02-26T16:18:09.434Z,8.80
2024-02-26T16:23:13.030Z,14.80
2024-02-26T16:28:16.578Z,11.50
2024-02-26T16:33:20.380Z,23.50
2024-02-26T16:38:24.587Z,16.50
2024-02-26T16:43:28.313Z,20.70
2024-02-26T16:48:38.120Z,19.10
2024-02-26T16:53:42.474Z,21.00
2024-02-26T16:58:45.992Z,21.50
2024-02-26T17:03:49.469Z,24.20
2024-02-26T17:08:55.808Z,27.10
2024-02-26T17:13:59.424Z,21.80
2024-02-26T17:19:03.663Z,20.70
2024-02-26T17:24:07.680Z,27.90
2024-02-26T17:29:11.615Z,27.00
2024-02-26T17:34:15.299Z,26.90
2024-02-26T17:39:18.991Z,29.00
2024-02-26T17:44:25.965Z,26.10
2024-02-26T17:49:29.606Z,26.50
2024-02-26T17:54:33.785Z,29.80
2024-02-26T17:59:37.419Z,33.30
2024-02-26T18:04:41.331Z,33.50
2024-02-26T18:09:46.077Z,35.90
2024-02-26T18:14:50.656Z,34.00
2024-02-26T18:19:54.849Z,36.40
2024-02-26T18:24:58.702Z,33.80
2024-02-26T18:30:02.765Z,35.50
2024-02-26T18:36:03.171Z,39.20
2024-02-26T18:41:12.344Z,36.60
2024-02-26T18:46:18.827Z,36.10
2024-02-26T18:51:22.652Z,35.80
2024-02-26T18:56:36.326Z,36.50
2024-02-26T19:01:49.036Z,38.90
2024-02-26T19:06:52.876Z,38.00
2024-02-26T19:11:58.101Z,39.40
2024-02-26T19:17:08.873Z,44.20
2024-02-26T19:22:17.917Z,45.30
2024-02-26T19:27:22.029Z,48.40
2024-02-26T19:32:25.564Z,45.40
2024-02-26T19:37:29.276Z,46.70
2024-02-26T19:42:35.852Z,46.20
2024-02-26T19:47:41.438Z,45.00
2024-02-26T19:52:45.477Z,46.40
2024-02-26T19:57:49.240Z,48.30
2024-02-26T20:02:52.936Z,50.70
2024-02-26T20:08:54.522Z,48.30
2024-02-26T20:14:32.761Z,56.10
2024-02-26T20:19:49.118Z,51.10
2024-02-26T20:24:56.081Z,46.30
2024-02-26T20:30:01.381Z,52.30
2024-02-26T20:35:33.639Z,52.50
2024-02-26T20:41:39.783Z,54.40
2024-02-26T20:47:08.510Z,52.20
2024-02-26T20:52:12.181Z,51.90
2024-02-26T20:57:15.791Z,51.50
2024-02-26T21:02:24.276Z,48.10
2024-02-26T21:13:45.014Z,49.90
2024-02-26T21:18:48.739Z,51.30
2024-02-26T21:23:52.887Z,55.80
2024-02-26T21:28:57.382Z,50.00
2024-02-26T21:34:01.379Z,52.80
2024-02-26T21:39:04.951Z,51.90
2024-02-26T21:44:09.678Z,52.90
2024-02-26T21:49:13.527Z,56.90
2024-02-26T21:54:17.169Z,54.70
2024-02-26T21:59:20.720Z,56.40
2024-02-26T22:04:24.235Z,55.10
2024-02-26T22:09:28.506Z,59.20
2024-02-26T22:14:32.200Z,61.20
2024-02-26T22:19:36.248Z,59.50
2024-02-26T22:24:39.827Z,55.80
2024-02-26T22:29:43.480Z,58.70
2024-02-26T22:34:47.258Z,55.50
2024-02-26T22:39:51.003Z,58.50
2024-02-26T22:44:54.647Z,53.00
2024-02-26T22:49:58.504Z,56.90
2024-02-26T22:55:01.919Z,54.60
2024-02-26T23:00:24.818Z,53.50
2024-02-26T23:10:32.072Z,54.70
2024-02-26T23:15:39.745Z,55.20
2024-02-26T23:20:43.307Z,54.20
2024-02-26T23:25:46.953Z,53.30
2024-02-26T23:30:50.693Z,48.60
2024-02-26T23:35:54.488Z,50.40
2024-02-26T23:40:58.213Z,51.90
2024-02-26T23:46:01.459Z,51.00
2024-02-26T23:51:05.115Z,53.80
2024-02-26T23:56:08.985Z,50.50
